Airfield :
LOGIN :

Register | Disclaimer

   EN    FR    IT 

 










Legend :    VFR   Marginal VFR   IFR   Intensive IFR   Very Intensive IFR
Visi :
Ceiling :
>= 8 km
>= 3000ft
5 to 8 km
1000 to 3000 ft
1500m to 5 km
500 to 1000 ft
800 to 1500m
200 to 500 ft
< 800m
< 200 ft
Symbols :   Thunderstorms  Fog  Heavy snow  Heavy precipitations  Wind > 20 kt
SIGMETs :     Misc.  Thunderstorms  Icing  Turbulence  Mountain Waves  Volcanic Ashes






- Airport Elevation : 302 ft
- IATA code : CGN


EDDK - Cologne Bonn

CURRENT METAR :
  • 291920Z AUTO 18008KT 9999 OVC017 01/M03 Q1024 NOSIG

EXPIRED METARs :
  • 291850Z AUTO 20008KT 9999 OVC017 02/M03 Q1024 NOSIG
  • 291820Z AUTO 21008KT 9999 OVC021 02/M03 Q1025 NOSIG
  • 291750Z AUTO 19008KT 140V230 9999 OVC022 01/M03 Q1025 NOSIG
  • 291720Z AUTO 21007KT 9999 OVC022 01/M03 Q1025 NOSIG
  • 291650Z AUTO 21008KT 9999 OVC022 02/M03 Q1025 NOSIG

TAF TAF EDDK
Valid from the 29 at 18:00 until the 31 at 00:00 UTC


291700Z 2918/3024 18005KT 9999 BKN020
BECMG 3000/3003 25013KT
PROB30
TEMPO 3000/3009 4000 -DZRA BKN010
TEMPO 3006/3016 29015G25KT
PROB30
TEMPO 3012/3015 30020G30KT SHRA BKN020TCU
BECMG 3020/3023 28007KT



MET'MAP, your aeronautical weather chart ! - Copyright ORBIFLY December 2007 - Disclaimer

ORBIFLY MET'MAP TEAM :

Programming & Development : Alexandra Zaïnal
Original concept : Baudouin d'Aumeries
Technical & hardware support : Manuel Goepfert
Assistance : Marc-Olivier Méhu




SOURCES & CREDITS :

   NOAA